Scroll down
FLIGHT INFORMATION
Federal Express (FedEx)

FDX502D

At Arrival Gate

LFPG
 EDDK
DATE: 2021-02-14
GATE: 134
GATE DEPARTURE: 19:46
TAKEOFF: 20:00
DATE: 2021-02-14
GATE:  -
LANDING: 20:44
GATE ARRIVAL: 20:50
FLIGHT DATA
Crew: 
Speed: 
448 kts
Altitude: 
22,018 ft
Stage Length: 
209.6 nm
Block Time: 
1 hrs
Flight Time: 
0.7 hrs
Fuel Used: 
15,226 lb
Cleared Route: LFPG PG091 PG092 PG094 NEPAR RANUX MEDOX VALEK LUTAX DIK ARCKY IBESA LEDMU ERUKI DEPOK DK455 LEGDU RW14L
TRACK DATA
50,000 ft 1,000 kts
AIRCRAFT INFO AND CUMULATIVE STATS
Aircraft Type: 
B77LF
Registration: 
SELCAL: 
MSN/LN: 
40682 / 1608
Total Flights: 
4
Total Block Time: 
27.7 hrs
Total Flight Time: 
26.6 hrs
Total Fuel Used: 
453,976 lb
DATALINK LOG | Newest first | Current as of: 2021-09-20 18:12:47
LABEL SEQUENCE CONTENT Dn/Up
QD530620:50 24.6▼ Dn
QC460220:44▼ Dn
QB022220:00▼ Dn
2U5626EDFH 141920Z 14013KT CAVOK M02/M10 Q1032▲ Up
2U5626EHAM 141925Z 14015KT CAVOK 03/M08 Q1029 NOSIG▲ Up
2U5626EDDF 141950Z 05007KT CAVOK M02/M08 Q1037 R07C/09//95 R07R/09//95 R18/09//95 NOSIG▲ Up
2U5626EDDK 141950Z 13012KT CAVOK 01/M11 Q1034 NOSIG▲ Up
2S5818EDDK EDDF EHAM EDFH▼ Dn
QA480919:46 40▼ Dn
Q04105[LINK ACK]▲ Up
Q04105[LINK TEST]▼ Dn


AIRCRAFT HISTORY
FLIGHT DATE FLIGHT NO. ORIGIN DESTINATION CLEARED ROUTE BLOCK TIME FLIGHT TIME FUEL USED PILOT
2021-03-27FDX212PANC ZSPD PANC TED FFITZ WINOR MCG UNK WONAB OME VALDA ABINA BC GIRLO BUMUL GETKA LUNAD LAMKU USAMA BETAM ARNAP ASBAT MONOG DERUD GOPNA RUKAR BISMA BANOT RELDI DIREB SOPIN NILOT GITAK GIRUD LUSAK KUNON LUPAT OBUTA IBOLI OLGIR SUKOP LAPNI BESPA OGNIT PENOK ODEKA MAGIT JMU IGADO HRB PABKI ISBOP NULRA LJB LEMOT NUBKI BIDIB ISKEM TOSID NODAL CHI SANKO OBDIS DONVO IKEKA OMLIB DOPNO IVPIP IKADI SURAK AKARA DUMET IPRAG PUD ZSPD9.3 hrs9.1 hrs156,802 lbMichael Roth
2021-03-13FDX313EDDK PANC EDDK DK130 DK141 DK143 DK144 DK145 WYP MISGO SONEB TENLI FLEVO SPY BERGI LEGBA ODASI LONAM VENAS GOLVO PELET ASKAM BADGA CUTEL ODMIX FORTY SUM SOSAR 6910N BERSO 7522N 7625N 7729N 7834N 7940N 8049N APSIN 8186N 80N03 79N12 78N18 77N23 76N27 75N30 74N33 73N35 ADREW FYU BIJOU BURMA CHATA FAI ENN TAGER PANC9.2 hrs8.9 hrs152,639 lbMarc O'Eland
2021-02-14FDX502DLFPG EDDK LFPG PG091 PG092 PG094 NEPAR RANUX MEDOX VALEK LUTAX DIK ARCKY IBESA LEDMU ERUKI DEPOK DK455 LEGDU RW14L1 hrs0.7 hrs15,226 lbEmanuel Hagen
2021-02-14FDX10KMEM LFPG KMEM SLONN BASAC GENEH NUYID SIDAE ROD YXU YXI YMW YLQ VBS ANCER NEEKO 5450N 5540N 5530N 5520N DOGAL BEXET SLANY STU NUMPO OKESI HOFIK BEDEK NIGIT VAPID MID SFD WAFFU HARDY XIDIL PETAX BIBAX BIBA1 BIBA2 BIBA3 BIBA4 BIBA5 KOLIV MOPAR RW09L8.3 hrs7.9 hrs129,309 lbEmanuel Hagen